Time;durP1;ratioP1;P1;durP2;ratioP2;P2;SDS_P1;SDS_P2;PMS_P1;PMS_P2;Temp;Humidity;BMP_temperature;BMP_pressure;BME280_temperature;BME280_humidity;BME280_pressure;Samples;Min_cycle;Max_cycle;Signal;HPM_P1;HPM_P2
2021/04/20 00:00:48;;;;;;;;;;;;;;;19.05;34.47;100088.84;4418801;32;20587;-53
2021/04/20 00:03:14;;;;;;;;;;;;;;;19.01;34.70;100092.31;4416680;32;19984;-51
2021/04/20 00:05:40;;;;;;;;;;;;;;;18.95;35.36;100084.25;4403711;32;19939;-55
2021/04/20 00:08:06;;;;;;;;;;;;;;;18.99;34.84;100094.03;4403399;32;20005;-55
2021/04/20 00:10:32;;;;;;;;;;;;;;;18.98;35.00;100089.59;4418553;32;20594;-52
2021/04/20 00:12:58;;;;;;;;;;;;;;;18.96;34.78;100086.06;4418269;32;19958;-55
2021/04/20 00:15:24;;;;;;;;;;;;;;;18.97;34.82;100082.56;4418329;32;19958;-53
2021/04/20 00:17:50;;;;;;;;;;;;;;;18.98;34.63;100086.06;4417839;32;19987;-56
2021/04/20 00:20:16;;;;;;;;;;;;;;;19.00;34.59;100079.09;4418443;32;19992;-53
2021/04/20 00:22:42;;;;;;;;;;;;;;;18.99;34.99;100075.53;4418692;32;19992;-55
2021/04/20 00:25:08;;;;;;;;;;;;;;;18.92;34.85;100076.31;4417152;32;19959;-52
2021/04/20 00:27:33;;;;;;;;;;;;;;;18.88;34.77;100080.66;4417659;32;19977;-54
2021/04/20 00:29:59;;;;;;;;;;;;;;;18.82;34.71;100081.47;4407635;32;19967;-55
2021/04/20 00:32:25;;;;;;;;;;;;;;;18.81;35.32;100079.69;4403261;32;19974;-55
2021/04/20 00:34:51;;;;;;;;;;;;;;;18.85;34.73;100074.47;4412163;32;19969;-54
2021/04/20 00:37:17;;;;;;;;;;;;;;;18.88;34.77;100074.50;4417592;32;19983;-55
2021/04/20 00:39:43;;;;;;;;;;;;;;;18.99;34.20;100072.91;4418447;32;20710;-56
2021/04/20 00:42:09;;;;;;;;;;;;;;;18.92;34.96;100073.69;4416443;32;19965;-55
2021/04/20 00:44:35;;;;;;;;;;;;;;;18.81;34.43;100069.12;4418388;32;19968;-52
2021/04/20 00:47:00;;;;;;;;;;;;;;;18.91;34.30;100069.28;4417847;32;19954;-55
2021/04/20 00:49:26;;;;;;;;;;;;;;;18.93;34.27;100073.72;4417775;32;20030;-52
2021/04/20 00:51:52;;;;;;;;;;;;;;;18.95;34.60;100068.44;4418358;32;19994;-55
2021/04/20 00:54:18;;;;;;;;;;;;;;;18.93;34.60;100072.81;4417784;32;20720;-55
2021/04/20 00:56:44;;;;;;;;;;;;;;;19.00;34.01;100066.78;4417245;32;20018;-55
2021/04/20 00:59:10;;;;;;;;;;;;;;;18.99;34.04;100072.00;4415364;32;20005;-54
2021/04/20 01:01:36;;;;;;;;;;;;;;;18.92;34.15;100066.66;4403017;32;19969;-54
2021/04/20 01:04:02;;;;;;;;;;;;;;;18.87;34.73;100067.47;4402061;32;19950;-54
2021/04/20 01:06:28;;;;;;;;;;;;;;;18.95;33.86;100061.41;4417192;32;20284;-54
2021/04/20 01:08:54;;;;;;;;;;;;;;;18.90;34.43;100062.22;4417331;32;20561;-55
2021/04/20 01:11:20;;;;;;;;;;;;;;;18.86;34.74;100055.16;4402429;32;19954;-52
2021/04/20 01:13:46;;;;;;;;;;;;;;;18.89;34.64;100060.44;4402930;32;19950;-53
2021/04/20 01:16:12;;;;;;;;;;;;;;;18.88;34.42;100059.56;4415081;32;19939;-55
2021/04/20 01:18:38;;;;;;;;;;;;;;;18.86;34.57;100061.28;4416867;32;20018;-52
2021/04/20 01:21:04;;;;;;;;;;;;;;;18.91;34.51;100056.97;4405758;32;20302;-55
2021/04/20 01:23:30;;;;;;;;;;;;;;;18.88;34.96;100054.28;4403056;32;19958;-51
2021/04/20 01:25:56;;;;;;;;;;;;;;;18.73;35.26;100051.44;4412163;32;19954;-54
2021/04/20 01:28:22;;;;;;;;;;;;;;;18.74;34.91;100054.09;4416521;32;19957;-55
2021/04/20 01:30:48;;;;;;;;;;;;;;;18.71;35.02;100055.81;4416326;32;19988;-55
2021/04/20 01:33:13;;;;;;;;;;;;;;;18.70;35.06;100054.91;4417532;32;20280;-55
2021/04/20 01:35:39;;;;;;;;;;;;;;;18.75;34.74;100058.50;4417894;32;19950;-55
2021/04/20 01:38:05;;;;;;;;;;;;;;;18.81;34.69;100055.06;4416607;32;19951;-51
2021/04/20 01:40:31;;;;;;;;;;;;;;;18.75;34.64;100062.88;4416075;32;19954;-55
2021/04/20 01:42:57;;;;;;;;;;;;;;;18.84;34.37;100062.16;4416920;32;19950;-51
2021/04/20 01:45:23;;;;;;;;;;;;;;;18.81;34.43;100058.59;4416417;32;20043;-54
2021/04/20 01:47:49;;;;;;;;;;;;;;;18.84;34.60;100062.16;4417093;32;20015;-55
2021/04/20 01:50:15;;;;;;;;;;;;;;;18.85;34.82;100063.94;4413272;32;19972;-55
2021/04/20 01:52:41;;;;;;;;;;;;;;;18.81;34.42;100063.00;4402121;32;19958;-54
2021/04/20 01:55:07;;;;;;;;;;;;;;;18.78;34.54;100063.81;4403209;32;20002;-54
2021/04/20 01:57:33;;;;;;;;;;;;;;;18.82;34.64;100060.34;4416423;32;19958;-55
2021/04/20 01:59:59;;;;;;;;;;;;;;;18.84;34.74;100067.44;4416789;32;19954;-53
2021/04/20 02:02:25;;;;;;;;;;;;;;;18.77;34.48;100063.81;4417286;32;20294;-53
2021/04/20 02:04:51;;;;;;;;;;;;;;;18.77;34.78;100067.34;4417163;32;19955;-56
2021/04/20 02:07:17;;;;;;;;;;;;;;;18.79;34.49;100065.59;4416206;32;20584;-55
2021/04/20 02:09:42;;;;;;;;;;;;;;;18.75;34.92;100061.16;4417314;32;19990;-51
2021/04/20 02:12:08;;;;;;;;;;;;;;;18.68;34.63;100057.53;4416167;32;19996;-55
2021/04/20 02:14:35;;;;;;;;;;;;;;;18.66;34.89;100063.66;4417104;32;19976;-56
2021/04/20 02:17:00;;;;;;;;;;;;;;;18.75;34.57;100060.25;4416696;32;19954;-55
2021/04/20 02:19:26;;;;;;;;;;;;;;;18.73;34.80;100060.25;4416765;32;19989;-52
2021/04/20 02:21:52;;;;;;;;;;;;;;;18.67;34.84;100054.88;4406763;32;19993;-55
2021/04/20 02:24:18;;;;;;;;;;;;;;;18.62;34.90;100046.03;4401815;32;20006;-56
2021/04/20 02:26:44;;;;;;;;;;;;;;;18.60;35.17;100047.75;4408618;32;19965;-51
2021/04/20 02:29:10;;;;;;;;;;;;;;;18.60;35.17;100047.75;4414519;32;19954;-53
2021/04/20 02:31:36;;;;;;;;;;;;;;;18.50;35.30;100049.34;4416976;32;19979;-54
2021/04/20 02:34:02;;;;;;;;;;;;;;;18.54;35.14;100048.53;4417589;32;19950;-54
2021/04/20 02:36:28;;;;;;;;;;;;;;;18.47;35.34;100042.28;4415500;32;20394;-51
2021/04/20 02:38:53;;;;;;;;;;;;;;;18.49;35.50;100048.47;4416540;32;20034;-56
2021/04/20 02:41:19;;;;;;;;;;;;;;;18.42;35.48;100046.59;4416151;32;19957;-50
2021/04/20 02:43:45;;;;;;;;;;;;;;;18.34;35.60;100040.34;4416057;32;20287;-55
2021/04/20 02:46:11;;;;;;;;;;;;;;;18.44;35.39;100050.13;4416290;32;19987;-55
2021/04/20 02:48:37;;;;;;;;;;;;;;;18.38;35.61;100043.03;4416039;32;19950;-52
2021/04/20 02:51:03;;;;;;;;;;;;;;;18.44;35.22;100044.88;4416802;32;20486;-55
2021/04/20 02:53:29;;;;;;;;;;;;;;;18.40;35.46;100050.97;4416214;32;20339;-52
2021/04/20 02:55:55;;;;;;;;;;;;;;;18.39;35.31;100049.19;4415819;32;20004;-55
2021/04/20 02:58:21;;;;;;;;;;;;;;;18.37;35.40;100051.78;4415700;32;19945;-53
2021/04/20 03:00:47;;;;;;;;;;;;;;;18.38;35.55;100044.78;4416646;32;20305;-53
2021/04/20 03:03:13;;;;;;;;;;;;;;;18.39;35.41;100052.69;4417296;32;19957;-55
2021/04/20 03:05:39;;;;;;;;;;;;;;;18.39;35.41;100049.19;4419656;32;19958;-54
2021/04/20 03:08:06;;;;;;;;;;;;;;;18.40;35.29;100053.59;4418714;32;20565;-54
2021/04/20 03:10:31;;;;;;;;;;;;;;;18.42;35.08;100057.16;4419345;32;19954;-53
2021/04/20 03:12:57;;;;;;;;;;;;;;;18.40;35.17;100051.88;4418004;32;19954;-55
2021/04/20 03:15:23;;;;;;;;;;;;;;;18.40;35.34;100045.69;4418981;32;20036;-55
2021/04/20 03:17:49;;;;;;;;;;;;;;;18.47;35.27;100054.56;4419222;32;19954;-53
2021/04/20 03:20:15;;;;;;;;;;;;;;;18.42;35.27;100054.50;4419233;32;19954;-54
2021/04/20 03:22:41;;;;;;;;;;;;;;;18.36;35.45;100049.16;4419459;32;19954;-55
2021/04/20 03:25:07;;;;;;;;;;;;;;;18.39;35.37;100054.47;4418738;32;19954;-56
2021/04/20 03:27:33;;;;;;;;;;;;;;;18.31;35.24;100050.81;4418645;32;20623;-52
2021/04/20 03:29:59;;;;;;;;;;;;;;;18.42;35.09;100049.22;4418542;32;19958;-55
2021/04/20 03:32:25;;;;;;;;;;;;;;;18.39;35.29;100049.19;4418447;32;19954;-54
2021/04/20 03:34:51;;;;;;;;;;;;;;;18.36;35.25;100051.78;4419664;32;19954;-54
2021/04/20 03:37:17;;;;;;;;;;;;;;;18.42;34.95;100053.63;4413127;32;20301;-54
2021/04/20 03:39:42;;;;;;;;;;;;;;;18.35;35.02;100042.97;4404130;32;20001;-52
2021/04/20 03:42:08;;;;;;;;;;;;;;;18.34;35.32;100053.53;4407144;32;20414;-55
2021/04/20 03:44:34;;;;;;;;;;;;;;;18.33;35.25;100046.44;4418894;32;19990;-54
2021/04/20 03:47:00;;;;;;;;;;;;;;;18.41;35.04;100050.09;4418191;32;20002;-54
2021/04/20 03:49:26;;;;;;;;;;;;;;;18.34;35.18;100049.12;4418938;32;19951;-55
2021/04/20 03:51:52;;;;;;;;;;;;;;;18.35;34.93;100052.66;4418533;32;19954;-54
2021/04/20 03:54:18;;;;;;;;;;;;;;;18.38;35.22;100050.06;4403551;32;19955;-56
2021/04/20 03:56:44;;;;;;;;;;;;;;;18.32;35.35;100048.22;4403442;32;19970;-54
2021/04/20 03:59:10;;;;;;;;;;;;;;;18.22;35.29;100041.91;4417716;32;19958;-54
2021/04/20 04:01:35;;;;;;;;;;;;;;;18.35;35.32;100047.37;4419056;32;19961;-54
2021/04/20 04:04:01;;;;;;;;;;;;;;;18.37;35.06;100050.94;4419030;32;19987;-53
2021/04/20 04:06:27;;;;;;;;;;;;;;;18.35;35.24;100042.12;4418395;32;19954;-55
2021/04/20 04:08:53;;;;;;;;;;;;;;;18.34;35.23;100048.25;4418249;32;20384;-55
2021/04/20 04:11:19;;;;;;;;;;;;;;;18.38;34.93;100047.41;4418531;32;19954;-55
2021/04/20 04:13:45;;;;;;;;;;;;;;;18.44;35.00;100047.50;4417779;32;19934;-55
2021/04/20 04:16:11;;;;;;;;;;;;;;;18.39;34.99;100044.78;4417755;32;20347;-54
2021/04/20 04:18:37;;;;;;;;;;;;;;;18.33;35.22;100041.16;4409083;32;19973;-54
2021/04/20 04:21:03;;;;;;;;;;;;;;;18.30;35.25;100038.50;4402640;32;20050;-54
2021/04/20 04:23:29;;;;;;;;;;;;;;;18.30;35.25;100043.78;4411472;32;19974;-53
2021/04/20 04:25:55;;;;;;;;;;;;;;;18.40;35.02;100045.69;4417519;32;20327;-52
2021/04/20 04:28:21;;;;;;;;;;;;;;;18.29;35.24;100047.28;4414984;32;20334;-54
2021/04/20 04:30:47;;;;;;;;;;;;;;;18.30;35.09;100049.03;4417405;32;19950;-54
2021/04/20 04:33:13;;;;;;;;;;;;;;;18.28;35.29;100045.50;4417209;32;19954;-54
2021/04/20 04:35:39;;;;;;;;;;;;;;;18.31;34.97;100056.09;4419141;32;19968;-55
2021/04/20 04:38:04;;;;;;;;;;;;;;;18.34;35.16;100051.75;4417667;32;19938;-53
2021/04/20 04:40:32;;;;;;;;;;;;;;;18.28;35.10;100050.78;4418587;32;20328;-53
2021/04/20 04:42:58;;;;;;;;;;;;;;;18.32;35.10;100050.84;4418017;32;20005;-52
2021/04/20 04:45:24;;;;;;;;;;;;;;;18.28;34.99;100051.69;4416248;32;19958;-54
2021/04/20 04:47:50;;;;;;;;;;;;;;;18.34;34.74;100053.53;4415788;32;19962;-54
2021/04/20 04:50:16;;;;;;;;;;;;;;;18.33;34.96;100059.62;4402993;32;19958;-53
2021/04/20 04:52:41;;;;;;;;;;;;;;;18.39;34.90;100054.47;4402059;32;19954;-53
2021/04/20 04:55:07;;;;;;;;;;;;;;;18.38;34.79;100058.84;4402464;32;19955;-54
2021/04/20 04:57:33;;;;;;;;;;;;;;;18.50;34.53;100057.25;4402388;32;19934;-53
2021/04/20 04:59:59;;;;;;;;;;;;;;;18.45;34.61;100059.81;4402361;32;19954;-52
2021/04/20 05:02:25;;;;;;;;;;;;;;;18.49;34.37;100064.28;4402888;32;19950;-54
2021/04/20 05:04:51;;;;;;;;;;;;;;;18.44;34.68;100065.09;4415037;32;19946;-56
2021/04/20 05:07:17;;;;;;;;;;;;;;;18.44;34.71;100065.97;4416648;32;20046;-51
2021/04/20 05:09:43;;;;;;;;;;;;;;;18.45;34.81;100067.72;4406370;32;19969;-53
2021/04/20 05:12:08;;;;;;;;;;;;;;;18.39;34.80;100067.66;4402217;32;20257;-53
2021/04/20 05:14:34;;;;;;;;;;;;;;;18.36;34.76;100065.84;4412132;32;19954;-54
2021/04/20 05:17:00;;;;;;;;;;;;;;;18.44;34.68;100068.59;4415975;32;20018;-53
2021/04/20 05:19:26;;;;;;;;;;;;;;;18.42;34.71;100069.47;4409112;32;19969;-54
2021/04/20 05:21:52;;;;;;;;;;;;;;;18.41;34.54;100068.56;4403251;32;20350;-51
2021/04/20 05:24:18;;;;;;;;;;;;;;;18.44;34.79;100068.59;4407696;32;19972;-54
2021/04/20 05:26:44;;;;;;;;;;;;;;;18.39;34.62;100065.00;4416299;32;19961;-54
2021/04/20 05:29:10;;;;;;;;;;;;;;;18.36;34.92;100064.97;4409835;32;20008;-56
2021/04/20 05:31:36;;;;;;;;;;;;;;;18.36;34.89;100065.84;4402085;32;19976;-54
2021/04/20 05:34:02;;;;;;;;;;;;;;;18.42;34.60;100062.41;4406468;32;19957;-56
2021/04/20 05:36:27;;;;;;;;;;;;;;;18.47;34.48;100063.38;4416806;32;19955;-54
2021/04/20 05:38:53;;;;;;;;;;;;;;;18.51;34.35;100062.56;4415825;32;20407;-54
2021/04/20 05:41:19;;;;;;;;;;;;;;;18.48;34.56;100067.81;4402924;32;19953;-52
2021/04/20 05:43:45;;;;;;;;;;;;;;;18.44;34.79;100065.09;4402507;32;19997;-55
2021/04/20 05:46:12;;;;;;;;;;;;;;;18.34;34.79;100064.94;4413610;32;19950;-54
2021/04/20 05:48:38;;;;;;;;;;;;;;;18.42;34.63;100065.06;4417057;32;20022;-55
2021/04/20 05:51:04;;;;;;;;;;;;;;;18.43;34.54;100065.97;4416295;32;19989;-53
2021/04/20 05:53:30;;;;;;;;;;;;;;;18.52;34.36;100066.97;4418170;32;20004;-56
2021/04/20 05:55:56;;;;;;;;;;;;;;;18.50;34.55;100065.16;4417960;32;19946;-53
2021/04/20 05:58:22;;;;;;;;;;;;;;;18.41;34.58;100068.56;4415678;32;19946;-54
2021/04/20 06:00:48;;;;;;;;;;;;;;;18.47;34.54;100067.75;4415967;32;19953;-54
2021/04/20 06:03:14;;;;;;;;;;;;;;;18.47;34.56;100068.66;4417615;32;19951;-53
2021/04/20 06:05:40;;;;;;;;;;;;;;;18.51;34.48;100075.75;4416953;32;20255;-54
2021/04/20 06:08:06;;;;;;;;;;;;;;;18.40;34.69;100072.06;4416454;32;19954;-54
2021/04/20 06:10:32;;;;;;;;;;;;;;;18.47;34.53;100073.94;4417127;32;19950;-52
2021/04/20 06:12:58;;;;;;;;;;;;;;;18.52;34.35;100071.34;4416182;32;20342;-54
2021/04/20 06:15:24;;;;;;;;;;;;;;;18.53;34.60;100068.75;4416957;32;19950;-54
2021/04/20 06:17:55;;;;;;;;;;;;;;;18.42;34.70;100080.87;4416812;32;20368;-54
2021/04/20 06:20:21;;;;;;;;;;;;;;;18.41;34.79;100079.09;4414382;32;19955;-55
2021/04/20 06:22:47;;;;;;;;;;;;;;;18.36;34.90;100078.16;4417552;32;19979;-55
2021/04/20 06:25:13;;;;;;;;;;;;;;;18.39;34.92;100080.84;4416258;32;20343;-54
2021/04/20 06:27:39;;;;;;;;;;;;;;;18.39;34.76;100086.09;4413914;32;20011;-54
2021/04/20 06:30:05;;;;;;;;;;;;;;;18.42;34.74;100088.78;4401835;32;19957;-51
2021/04/20 06:32:31;;;;;;;;;;;;;;;18.44;34.78;100087.03;4386012;32;20045;-53
2021/04/20 06:34:57;;;;;;;;;;;;;;;18.38;34.89;100094.87;4390007;32;19988;-51
2021/04/20 06:37:22;;;;;;;;;;;;;;;18.30;35.34;100092.13;4401087;32;20437;-54
2021/04/20 06:39:48;;;;;;;;;;;;;;;18.31;35.24;100087.72;4406943;32;20035;-56
2021/04/20 06:42:14;;;;;;;;;;;;;;;18.43;35.37;100087.03;4419503;32;19953;-55
2021/04/20 06:44:40;;;;;;;;;;;;;;;18.57;35.00;100079.31;4419245;32;19950;-55
2021/04/20 06:47:06;;;;;;;;;;;;;;;18.65;35.10;100089.16;4418567;32;19950;-55
2021/04/20 06:49:32;;;;;;;;;;;;;;;18.53;35.15;100079.28;4413707;32;20378;-53
2021/04/20 06:51:58;;;;;;;;;;;;;;;18.59;34.80;100082.91;4418023;32;20071;-53
2021/04/20 06:54:24;;;;;;;;;;;;;;;18.58;34.87;100079.38;4417870;32;20032;-54
2021/04/20 06:56:51;;;;;;;;;;;;;;;18.48;35.09;100080.97;4416872;32;19965;-52
2021/04/20 06:59:16;;;;;;;;;;;;;;;18.46;34.94;100080.06;4417723;32;20312;-54
2021/04/20 07:01:42;;;;;;;;;;;;;;;18.44;35.29;100081.78;4417473;32;20040;-53
2021/04/20 07:04:09;;;;;;;;;;;;;;;18.46;35.24;100077.44;4409363;32;19980;-53
2021/04/20 07:06:35;;;;;;;;;;;;;;;18.59;34.84;100077.63;4411788;32;20276;-52
2021/04/20 07:09:01;;;;;;;;;;;;;;;18.68;34.44;100073.38;4417000;32;19973;-55
2021/04/20 07:11:27;;;;;;;;;;;;;;;18.72;34.67;100079.59;4416520;32;19961;-54
2021/04/20 07:13:55;;;;;;;;;;;;;;;18.76;34.48;100081.37;4417757;32;20031;-52
2021/04/20 07:16:21;;;;;;;;;;;;;;;18.73;34.59;100084.00;4407451;32;20343;-53
2021/04/20 07:18:47;;;;;;;;;;;;;;;18.78;34.48;100079.66;4401361;32;20006;-55
2021/04/20 07:21:13;;;;;;;;;;;;;;;18.80;34.38;100077.03;4414723;32;20401;-55
2021/04/20 07:23:39;;;;;;;;;;;;;;;18.80;34.70;100077.91;4418896;32;19950;-54
2021/04/20 07:26:05;;;;;;;;;;;;;;;18.77;34.46;100072.59;4416112;32;19980;-54
2021/04/20 07:28:31;;;;;;;;;;;;;;;18.76;34.56;100076.09;4415682;32;19969;-53
2021/04/20 07:30:57;;;;;;;;;;;;;;;18.83;34.52;100071.81;4417504;32;20435;-55
2021/04/20 07:33:23;;;;;;;;;;;;;;;18.87;34.31;100072.75;4416690;32;19950;-53
2021/04/20 07:35:49;;;;;;;;;;;;;;;18.88;34.33;100069.25;4417872;32;20393;-54
2021/04/20 07:38:14;;;;;;;;;;;;;;;18.91;34.26;100069.28;4417169;32;19964;-54
2021/04/20 07:40:41;;;;;;;;;;;;;;;18.90;34.35;100065.75;4417242;32;19954;-53
2021/04/20 07:43:07;;;;;;;;;;;;;;;18.91;34.53;100069.28;4417790;32;19983;-54
2021/04/20 07:45:33;;;;;;;;;;;;;;;18.80;34.90;100064.72;4417630;32;19962;-54
2021/04/20 07:47:59;;;;;;;;;;;;;;;18.81;34.63;100063.84;4416983;32;19977;-53
2021/04/20 07:50:24;;;;;;;;;;;;;;;18.86;34.68;100063.94;4416434;32;20268;-52
2021/04/20 07:52:51;;;;;;;;;;;;;;;18.80;34.90;100061.22;4417656;32;19950;-56
2021/04/20 07:55:16;;;;;;;;;;;;;;;18.58;35.55;100070.56;4416925;32;20616;-55
2021/04/20 07:57:42;;;;;;;;;;;;;;;18.56;35.54;100067.00;4417619;32;19983;-53
2021/04/20 08:00:08;;;;;;;;;;;;;;;18.67;35.12;100062.78;4416617;32;19946;-55
2021/04/20 08:02:35;;;;;;;;;;;;;;;18.76;34.93;100060.28;4415834;32;19955;-55
2021/04/20 08:05:01;;;;;;;;;;;;;;;18.71;35.30;100061.97;4417537;32;20302;-55
2021/04/20 08:07:27;;;;;;;;;;;;;;;18.81;34.92;100058.59;4415821;32;19950;-55
2021/04/20 08:09:53;;;;;;;;;;;;;;;18.86;34.75;100065.69;4415221;32;19970;-55
2021/04/20 08:12:19;;;;;;;;;;;;;;;18.84;34.83;100064.78;4408203;32;19984;-56
2021/04/20 08:14:45;;;;;;;;;;;;;;;18.92;34.75;100065.75;4411452;32;19958;-54
2021/04/20 08:17:11;;;;;;;;;;;;;;;18.94;34.74;100069.31;4415042;32;20023;-53
2021/04/20 08:19:37;;;;;;;;;;;;;;;18.94;34.71;100064.03;4417690;32;19954;-56
2021/04/20 08:22:03;;;;;;;;;;;;;;;18.71;35.36;100067.25;4416648;32;20609;-56
2021/04/20 08:24:29;;;;;;;;;;;;;;;18.81;35.09;100063.84;4416672;32;20448;-55
2021/04/20 08:26:54;;;;;;;;;;;;;;;18.83;34.97;100058.63;4416958;32;20291;-55
2021/04/20 08:29:20;;;;;;;;;;;;;;;18.87;35.09;100056.91;4416845;32;19990;-55
2021/04/20 08:31:46;;;;;;;;;;;;;;;18.84;35.30;100051.59;4416898;32;19958;-55
2021/04/20 08:34:12;;;;;;;;;;;;;;;18.79;35.68;100055.03;4417129;32;20331;-55
2021/04/20 08:36:38;;;;;;;;;;;;;;;18.72;35.87;100053.19;4417475;32;19954;-53
2021/04/20 08:39:04;;;;;;;;;;;;;;;18.69;36.05;100053.13;4415945;32;19950;-55
2021/04/20 08:41:30;;;;;;;;;;;;;;;18.69;36.18;100042.59;4417617;32;19950;-54
2021/04/20 08:43:56;;;;;;;;;;;;;;;18.72;36.21;100047.94;4416280;32;19947;-54
2021/04/20 08:46:22;;;;;;;;;;;;;;;18.71;36.23;100051.44;4417049;32;20380;-55
2021/04/20 08:48:50;;;;;;;;;;;;;;;18.70;36.27;100038.22;4417606;32;19958;-54
2021/04/20 08:51:16;;;;;;;;;;;;;;;18.74;36.25;100046.19;4418030;32;19968;-55
2021/04/20 08:53:42;;;;;;;;;;;;;;;18.81;36.19;100052.44;4417607;32;20287;-56
2021/04/20 08:56:08;;;;;;;;;;;;;;;18.82;36.23;100047.16;4417449;32;20397;-56
2021/04/20 08:58:34;;;;;;;;;;;;;;;18.80;36.33;100046.25;4416913;32;19950;-54
2021/04/20 09:01:00;;;;;;;;;;;;;;;18.81;36.30;100042.75;4416997;32;20316;-54
2021/04/20 09:03:26;;;;;;;;;;;;;;;18.82;36.38;100047.16;4415001;32;19953;-56
2021/04/20 09:05:52;;;;;;;;;;;;;;;18.85;36.31;100048.09;4414394;32;20018;-56
2021/04/20 09:08:18;;;;;;;;;;;;;;;18.79;36.68;100046.25;4415674;32;19950;-54
2021/04/20 09:10:44;;;;;;;;;;;;;;;18.72;36.76;100042.66;4417185;32;19990;-53
2021/04/20 09:13:10;;;;;;;;;;;;;;;18.84;36.53;100043.69;4405431;32;19958;-55
2021/04/20 09:15:36;;;;;;;;;;;;;;;18.90;36.45;100041.13;4400570;32;19991;-56
2021/04/20 09:18:02;;;;;;;;;;;;;;;18.97;36.38;100048.25;4407145;32;20011;-56
2021/04/20 09:20:28;;;;;;;;;;;;;;;19.04;36.30;100046.63;4414542;32;21303;-55
2021/04/20 09:22:54;;;;;;;;;;;;;;;19.05;36.32;100033.41;4413532;32;19994;-56
2021/04/20 09:25:20;;;;;;;;;;;;;;;19.03;36.44;100039.56;4415979;32;20029;-55
2021/04/20 09:27:46;;;;;;;;;;;;;;;19.01;36.52;100039.53;4415640;32;19987;-55
2021/04/20 09:30:14;;;;;;;;;;;;;;;19.05;36.58;100035.19;4414732;32;20086;-56
2021/04/20 09:32:40;;;;;;;;;;;;;;;18.96;36.92;100033.28;4414493;32;20016;-52
2021/04/20 09:35:06;;;;;;;;;;;;;;;18.91;37.10;100029.69;4412668;32;19950;-54
2021/04/20 09:37:32;;;;;;;;;;;;;;;18.74;37.60;100032.09;4411164;32;20348;-54
2021/04/20 09:39:58;;;;;;;;;;;;;;;18.57;38.20;100031.84;4399219;32;19962;-53
2021/04/20 09:42:24;;;;;;;;;;;;;;;18.59;38.33;100035.44;4414176;32;19962;-56
2021/04/20 09:44:50;;;;;;;;;;;;;;;18.65;38.35;100030.22;4414703;32;20283;-56
2021/04/20 09:47:15;;;;;;;;;;;;;;;18.81;37.99;100029.56;4413483;32;19973;-55
2021/04/20 09:49:41;;;;;;;;;;;;;;;18.85;38.12;100032.25;4412493;32;19972;-56
2021/04/20 09:52:07;;;;;;;;;;;;;;;18.79;38.44;100028.66;4400761;32;19950;-56
2021/04/20 09:54:33;;;;;;;;;;;;;;;18.84;38.61;100025.22;4396852;32;20414;-55
2021/04/20 09:57:01;;;;;;;;;;;;;;;18.94;38.54;100032.34;4397708;32;19993;-56
2021/04/20 09:59:27;;;;;;;;;;;;;;;19.09;38.32;100032.59;4403006;32;19958;-55
2021/04/20 10:01:53;;;;;;;;;;;;;;;19.28;38.07;100027.53;4413998;32;19997;-56
2021/04/20 10:04:19;;;;;;;;;;;;;;;19.32;38.03;100033.75;4408484;32;20039;-56
2021/04/20 10:06:45;;;;;;;;;;;;;;;19.50;37.55;100026.00;4414513;32;19959;-56
2021/04/20 10:09:11;;;;;;;;;;;;;;;19.58;37.44;100031.38;4415044;32;19950;-55
2021/04/20 10:11:38;;;;;;;;;;;;;;;19.73;37.09;100029.75;4414491;32;19950;-55
2021/04/20 10:14:04;;;;;;;;;;;;;;;19.69;37.11;100030.59;4415775;32;19958;-56
2021/04/20 10:16:30;;;;;;;;;;;;;;;19.70;37.20;100029.75;4414103;32;19968;-56
2021/04/20 10:18:55;;;;;;;;;;;;;;;19.84;36.88;100022.81;4414408;32;19954;-56
2021/04/20 10:21:21;;;;;;;;;;;;;;;19.97;36.66;100020.31;4414276;32;19981;-54
2021/04/20 10:23:47;;;;;;;;;;;;;;;19.99;36.75;100021.22;4413802;32;20007;-55
2021/04/20 10:26:13;;;;;;;;;;;;;;;20.02;36.67;100021.22;4413522;32;20019;-56
2021/04/20 10:28:39;;;;;;;;;;;;;;;20.08;36.57;100011.59;4413981;32;19950;-54
2021/04/20 10:31:05;;;;;;;;;;;;;;;20.10;36.59;100014.25;4414369;32;19987;-54
2021/04/20 10:33:31;;;;;;;;;;;;;;;20.03;36.91;100015.06;4415636;32;19958;-55
2021/04/20 10:35:57;;;;;;;;;;;;;;;20.00;37.01;100012.41;4415169;32;20327;-54
2021/04/20 10:38:23;;;;;;;;;;;;;;;19.98;37.05;100008.88;4413898;32;20033;-54
2021/04/20 10:40:53;;;;;;;;;;;;;;;19.94;37.23;100007.97;4406520;32;19981;-56
2021/04/20 10:43:22;;;;;;;;;;;;;;;19.99;37.28;100014.16;4410264;32;19958;-56
2021/04/20 10:45:48;;;;;;;;;;;;;;;19.98;37.30;100006.22;4415271;32;19952;-56
2021/04/20 10:48:13;;;;;;;;;;;;;;;19.89;37.47;100005.25;4413934;32;19998;-52
2021/04/20 10:50:40;;;;;;;;;;;;;;;20.02;37.29;100005.38;4414281;32;19965;-55
2021/04/20 10:53:05;;;;;;;;;;;;;;;20.15;37.05;100001.94;4411208;32;19958;-55
2021/04/20 10:55:31;;;;;;;;;;;;;;;20.28;36.85;99992.34;4414359;32;19969;-52
2021/04/20 10:57:57;;;;;;;;;;;;;;;20.41;36.60;99992.44;4414039;32;19969;-55
2021/04/20 11:00:25;;;;;;;;;;;;;;;20.54;36.37;99998.66;4414071;32;20072;-57
2021/04/20 11:02:51;;;;;;;;;;;;;;;20.54;36.30;99998.66;4413919;32;20300;-55
2021/04/20 11:05:20;;;;;;;;;;;;;;;20.52;36.38;99987.19;4414588;32;19954;-55
2021/04/20 11:07:46;;;;;;;;;;;;;;;20.54;36.31;99983.69;4407975;32;19954;-56
2021/04/20 11:10:12;;;;;;;;;;;;;;;20.62;36.20;99994.31;4412266;32;20419;-55
2021/04/20 11:12:38;;;;;;;;;;;;;;;20.63;36.16;99982.84;4415415;32;19968;-56
2021/04/20 11:15:04;;;;;;;;;;;;;;;20.63;36.14;99981.09;4414375;32;19943;-55
2021/04/20 11:17:30;;;;;;;;;;;;;;;20.74;35.96;99981.13;4416187;32;19950;-55
2021/04/20 11:19:56;;;;;;;;;;;;;;;20.74;35.95;99970.56;4415706;32;19973;-55
2021/04/20 11:22:22;;;;;;;;;;;;;;;20.73;35.92;99966.12;4415475;32;19984;-55
2021/04/20 11:24:48;;;;;;;;;;;;;;;20.83;35.73;99963.56;4415349;32;19961;-55
2021/04/20 11:27:14;;;;;;;;;;;;;;;20.82;35.88;99967.09;4414792;32;20009;-52
2021/04/20 11:29:40;;;;;;;;;;;;;;;20.90;35.70;99966.25;4396386;32;19962;-51
2021/04/20 11:32:05;;;;;;;;;;;;;;;20.93;35.67;99960.09;4402214;32;20349;-54
2021/04/20 11:34:32;;;;;;;;;;;;;;;20.96;35.49;99954.78;4403479;32;19954;-51
2021/04/20 11:37:00;;;;;;;;;;;;;;;20.97;35.58;99956.56;4403851;32;19962;-55
2021/04/20 11:39:26;;;;;;;;;;;;;;;21.02;35.44;99953.94;4403041;32;19996;-54
2021/04/20 11:41:52;;;;;;;;;;;;;;;21.04;35.47;99945.09;4402266;32;19950;-55
2021/04/20 11:44:18;;;;;;;;;;;;;;;21.07;35.42;99952.16;4401670;32;19951;-55
2021/04/20 11:46:43;;;;;;;;;;;;;;;21.13;35.35;99946.00;4401626;32;20405;-56
2021/04/20 11:49:09;;;;;;;;;;;;;;;21.06;35.60;99950.41;4401851;32;20007;-54
2021/04/20 11:51:35;;;;;;;;;;;;;;;21.10;35.53;99940.72;4402648;32;20267;-54
2021/04/20 11:54:01;;;;;;;;;;;;;;;21.11;35.53;99950.41;4402486;32;20012;-52
2021/04/20 11:56:27;;;;;;;;;;;;;;;21.09;35.54;99949.53;4408661;32;19962;-55
2021/04/20 11:58:53;;;;;;;;;;;;;;;21.10;35.56;99946.88;4413434;32;20168;-55
2021/04/20 12:01:21;;;;;;;;;;;;;;;21.11;35.50;99947.78;4417259;32;19973;-53
2021/04/20 12:03:46;;;;;;;;;;;;;;;21.15;35.41;99947.78;4417952;32;19965;-55
2021/04/20 12:06:12;;;;;;;;;;;;;;;21.16;35.39;99940.72;4417736;32;20048;-52
2021/04/20 12:08:38;;;;;;;;;;;;;;;21.20;35.38;99943.38;4417765;32;20052;-53
2021/04/20 12:11:04;;;;;;;;;;;;;;;21.23;35.33;99939.84;4410787;32;19954;-54
2021/04/20 12:13:30;;;;;;;;;;;;;;;21.20;35.34;99942.50;4402446;32;19994;-54
2021/04/20 12:15:56;;;;;;;;;;;;;;;21.19;35.34;99936.31;4408294;32;19950;-60
2021/04/20 12:18:22;;;;;;;;;;;;;;;21.18;33.22;99928.38;4414937;32;19987;-60
2021/04/20 12:20:48;;;;;;;;;;;;;;;20.94;31.71;99940.69;4417296;32;19961;-59
2021/04/20 12:23:14;;;;;;;;;;;;;;;20.43;33.11;99930.72;4416873;32;20442;-59
2021/04/20 12:25:40;;;;;;;;;;;;;;;20.68;32.74;99932.59;4418183;32;19969;-59
2021/04/20 12:28:07;;;;;;;;;;;;;;;20.73;31.45;99931.75;4415765;32;19995;-59
2021/04/20 12:30:33;;;;;;;;;;;;;;;20.33;31.32;99928.94;4412026;32;19950;-59